NKS387 KFLL-KTPA
Flight info
| Callsign | NKS387 |
|---|---|
| Flight time | 0h 39m |
| Altitude | 22000 |
| Route | BNICE2 COREA BLFRG3 |
| Aircraft | A320/M-SDE3FGHIRWY/LB1 |
Departure
| Time | 2026-05-03 21:14 |
|---|---|
| Airport | Fort Lauderdale Hollywood International Airport (KFLL) |
Arrival
| Time | 2026-05-03 21:54 |
|---|---|
| Airport | Tampa International Airport (KTPA) |
| Time | Latitude | Longitude | Altitude | Speed | Heading |
|---|---|---|---|---|---|
| 2026-05-03 20:15 | 26.07343 | -80.14604 | 38 ft | 0 kts | 208° |
| 2026-05-03 20:37 | 26.07352 | -80.14599 | 19 ft | 4 kts | 208° |
| 2026-05-03 20:38 | 26.07376 | -80.14584 | 22 ft | 4 kts | 208° |
| 2026-05-03 20:38 | 26.07400 | -80.14570 | 22 ft | 4 kts | 208° |
| 2026-05-03 20:38 | 26.07424 | -80.14556 | 21 ft | 4 kts | 207° |
| 2026-05-03 20:38 | 26.07448 | -80.14542 | 24 ft | 4 kts | 210° |
| 2026-05-03 20:39 | 26.07470 | -80.14525 | 25 ft | 4 kts | 232° |
| 2026-05-03 20:39 | 26.07479 | -80.14501 | 20 ft | 3 kts | 289° |
| 2026-05-03 20:39 | 26.07477 | -80.14496 | 21 ft | 0 kts | 294° |
| 2026-05-03 20:43 | 26.07479 | -80.14500 | 21 ft | 3 kts | 294° |
| 2026-05-03 20:43 | 26.07488 | -80.14612 | 20 ft | 23 kts | 270° |
| 2026-05-03 20:43 | 26.07489 | -80.14808 | 16 ft | 26 kts | 269° |
| 2026-05-03 20:43 | 26.07491 | -80.15021 | 15 ft | 28 kts | 270° |
| 2026-05-03 20:44 | 26.07491 | -80.15210 | 12 ft | 21 kts | 270° |
| 2026-05-03 20:44 | 26.07491 | -80.15388 | 11 ft | 24 kts | 272° |
| 2026-05-03 20:44 | 26.07491 | -80.15578 | 14 ft | 25 kts | 270° |
| 2026-05-03 20:44 | 26.07494 | -80.15767 | 14 ft | 24 kts | 270° |
| 2026-05-03 20:45 | 26.07495 | -80.15953 | 17 ft | 24 kts | 269° |
| 2026-05-03 20:45 | 26.07496 | -80.16120 | 20 ft | 19 kts | 269° |
| 2026-05-03 20:45 | 26.07496 | -80.16219 | 19 ft | 5 kts | 270° |
| 2026-05-03 20:45 | 26.07497 | -80.16235 | 19 ft | 0 kts | 270° |
| 2026-05-03 20:46 | 26.07497 | -80.16238 | 19 ft | 0 kts | 270° |
| 2026-05-03 20:46 | 26.07496 | -80.16247 | 19 ft | 3 kts | 269° |
| 2026-05-03 20:46 | 26.07496 | -80.16257 | 19 ft | 0 kts | 269° |
| 2026-05-03 20:47 | 26.07496 | -80.16272 | 19 ft | 3 kts | 270° |
| 2026-05-03 20:47 | 26.07496 | -80.16308 | 18 ft | 6 kts | 270° |
| 2026-05-03 20:47 | 26.07497 | -80.16327 | 18 ft | 1 kts | 270° |
| 2026-05-03 20:47 | 26.07497 | -80.16347 | 18 ft | 5 kts | 270° |
| 2026-05-03 20:48 | 26.07497 | -80.16356 | 18 ft | 1 kts | 270° |
| 2026-05-03 20:48 | 26.07497 | -80.16373 | 18 ft | 0 kts | 271° |
| 2026-05-03 20:49 | 26.07497 | -80.16377 | 18 ft | 0 kts | 270° |
| 2026-05-03 20:50 | 26.07497 | -80.16378 | 18 ft | 0 kts | 270° |
| 2026-05-03 20:50 | 26.07497 | -80.16409 | 18 ft | 0 kts | 271° |
| 2026-05-03 20:52 | 26.07498 | -80.16421 | 18 ft | 4 kts | 271° |
| 2026-05-03 20:52 | 26.07498 | -80.16423 | 18 ft | 0 kts | 271° |
| 2026-05-03 20:53 | 26.07498 | -80.16430 | 18 ft | 5 kts | 271° |
| 2026-05-03 20:54 | 26.07498 | -80.16484 | 19 ft | 0 kts | 270° |
| 2026-05-03 20:58 | 26.07498 | -80.16489 | 19 ft | 1 kts | 270° |
| 2026-05-03 20:58 | 26.07498 | -80.16492 | 19 ft | 0 kts | 270° |
| 2026-05-03 20:59 | 26.07498 | -80.16496 | 19 ft | 2 kts | 270° |
| 2026-05-03 20:59 | 26.07498 | -80.16519 | 19 ft | 0 kts | 269° |
| 2026-05-03 21:00 | 26.07498 | -80.16525 | 19 ft | 2 kts | 269° |
| 2026-05-03 21:00 | 26.07498 | -80.16532 | 19 ft | 0 kts | 269° |
| 2026-05-03 21:01 | 26.07498 | -80.16533 | 19 ft | 0 kts | 269° |
| 2026-05-03 21:01 | 26.07498 | -80.16551 | 19 ft | 5 kts | 269° |
| 2026-05-03 21:01 | 26.07501 | -80.16608 | 18 ft | 9 kts | 283° |
| 2026-05-03 21:01 | 26.07507 | -80.16623 | 19 ft | 0 kts | 302° |
| 2026-05-03 21:02 | 26.07515 | -80.16632 | 18 ft | 0 kts | 317° |
| 2026-05-03 21:02 | 26.07519 | -80.16635 | 18 ft | 0 kts | 326° |
| 2026-05-03 21:04 | 26.07533 | -80.16640 | 17 ft | 5 kts | 345° |
| 2026-05-03 21:04 | 26.07541 | -80.16641 | 17 ft | 0 kts | 352° |
| 2026-05-03 21:05 | 26.07545 | -80.16642 | 17 ft | 0 kts | 352° |
| 2026-05-03 21:05 | 26.07553 | -80.16643 | 17 ft | 0 kts | 355° |
| 2026-05-03 21:06 | 26.07555 | -80.16643 | 16 ft | 0 kts | 355° |
| 2026-05-03 21:07 | 26.07558 | -80.16643 | 16 ft | 1 kts | 355° |
| 2026-05-03 21:07 | 26.07572 | -80.16644 | 18 ft | 9 kts | 359° |
| 2026-05-03 21:08 | 26.07598 | -80.16644 | 16 ft | 0 kts | 0° |
| 2026-05-03 21:12 | 26.07599 | -80.16644 | 16 ft | 2 kts | 0° |
| 2026-05-03 21:12 | 26.07666 | -80.16643 | 15 ft | 14 kts | 0° |
| 2026-05-03 21:12 | 26.07695 | -80.16589 | 16 ft | 0 kts | 91° |
| 2026-05-03 21:13 | 26.07695 | -80.16552 | 16 ft | 25 kts | 90° |
| 2026-05-03 21:14 | 26.07693 | -80.16089 | 17 ft | 92 kts | 90° |
| 2026-05-03 21:14 | 26.07688 | -80.15152 | 13 ft | 152 kts | 90° |
| 2026-05-03 21:14 | 26.07671 | -80.13884 | 580 ft | 166 kts | 86° |
| 2026-05-03 21:14 | 26.07699 | -80.12593 | 1519 ft | 166 kts | 87° |
| 2026-05-03 21:15 | 26.07744 | -80.11298 | 2206 ft | 170 kts | 86° |
| 2026-05-03 21:15 | 26.08022 | -80.09953 | 2431 ft | 189 kts | 70° |
| 2026-05-03 21:15 | 26.08485 | -80.08480 | 2603 ft | 213 kts | 65° |
| 2026-05-03 21:15 | 26.09416 | -80.07150 | 2790 ft | 234 kts | 34° |
| 2026-05-03 21:16 | 26.10956 | -80.06355 | 3127 ft | 256 kts | 18° |
| 2026-05-03 21:16 | 26.12683 | -80.05669 | 3716 ft | 269 kts | 18° |
| 2026-05-03 21:16 | 26.14476 | -80.04995 | 3945 ft | 272 kts | 10° |
| 2026-05-03 21:16 | 26.16334 | -80.04961 | 4004 ft | 267 kts | 345° |
| 2026-05-03 21:17 | 26.18102 | -80.05591 | 4007 ft | 266 kts | 339° |
| 2026-05-03 21:17 | 26.19286 | -80.06051 | 4007 ft | 266 kts | 339° |
| 2026-05-03 21:17 | 26.21458 | -80.07280 | 4008 ft | 265 kts | 319° |
| 2026-05-03 21:17 | 26.22715 | -80.08754 | 4085 ft | 265 kts | 302° |
| 2026-05-03 21:18 | 26.23536 | -80.10574 | 4934 ft | 263 kts | 290° |
| 2026-05-03 21:18 | 26.24223 | -80.12473 | 5894 ft | 266 kts | 296° |
| 2026-05-03 21:18 | 26.24963 | -80.14381 | 6897 ft | 269 kts | 291° |
| 2026-05-03 21:18 | 26.25564 | -80.16354 | 7870 ft | 270 kts | 279° |
| 2026-05-03 21:19 | 26.25846 | -80.18427 | 8828 ft | 270 kts | 277° |
| 2026-05-03 21:19 | 26.26126 | -80.20509 | 9821 ft | 273 kts | 277° |
| 2026-05-03 21:19 | 26.26419 | -80.22640 | 10553 ft | 289 kts | 277° |
| 2026-05-03 21:19 | 26.26741 | -80.24946 | 11169 ft | 313 kts | 278° |
| 2026-05-03 21:20 | 26.26970 | -80.26564 | 11708 ft | 319 kts | 277° |
| 2026-05-03 21:20 | 26.27437 | -80.29827 | 12678 ft | 325 kts | 277° |
| 2026-05-03 21:20 | 26.27679 | -80.31511 | 12900 ft | 327 kts | 277° |
| 2026-05-03 21:20 | 26.28156 | -80.34851 | 13611 ft | 331 kts | 277° |
| 2026-05-03 21:21 | 26.28515 | -80.37394 | 14725 ft | 333 kts | 277° |
| 2026-05-03 21:21 | 26.28879 | -80.39957 | 15666 ft | 336 kts | 277° |
| 2026-05-03 21:21 | 26.29126 | -80.41702 | 16206 ft | 342 kts | 276° |
| 2026-05-03 21:21 | 26.29635 | -80.45331 | 16523 ft | 372 kts | 276° |
| 2026-05-03 21:22 | 26.29902 | -80.47234 | 16915 ft | 379 kts | 277° |
| 2026-05-03 21:22 | 26.30319 | -80.50197 | 17720 ft | 385 kts | 276° |
| 2026-05-03 21:22 | 26.30735 | -80.53124 | 18513 ft | 389 kts | 276° |
| 2026-05-03 21:22 | 26.31160 | -80.56111 | 19243 ft | 392 kts | 276° |
| 2026-05-03 21:23 | 26.31588 | -80.59131 | 19962 ft | 396 kts | 276° |
| 2026-05-03 21:23 | 26.32018 | -80.62214 | 20448 ft | 407 kts | 276° |
| 2026-05-03 21:23 | 26.32455 | -80.65360 | 20902 ft | 418 kts | 276° |
| 2026-05-03 21:23 | 26.32901 | -80.68570 | 21648 ft | 410 kts | 276° |
| 2026-05-03 21:24 | 26.33333 | -80.71612 | 21934 ft | 384 kts | 275° |
| 2026-05-03 21:24 | 26.33741 | -80.74483 | 22030 ft | 366 kts | 275° |
| 2026-05-03 21:24 | 26.34130 | -80.77235 | 22044 ft | 351 kts | 275° |
| 2026-05-03 21:24 | 26.34502 | -80.79868 | 22047 ft | 339 kts | 275° |
| 2026-05-03 21:25 | 26.34860 | -80.82459 | 22045 ft | 337 kts | 275° |
| 2026-05-03 21:25 | 26.35211 | -80.85044 | 22045 ft | 337 kts | 275° |
| 2026-05-03 21:25 | 26.35561 | -80.87627 | 22047 ft | 337 kts | 275° |
| 2026-05-03 21:25 | 26.35997 | -80.90194 | 22046 ft | 341 kts | 282° |
| 2026-05-03 21:26 | 26.36901 | -80.92626 | 22045 ft | 347 kts | 294° |
| 2026-05-03 21:26 | 26.38330 | -80.94832 | 22048 ft | 357 kts | 305° |
| 2026-05-03 21:26 | 26.40156 | -80.96791 | 22045 ft | 361 kts | 309° |
| 2026-05-03 21:26 | 26.41966 | -80.98681 | 22035 ft | 360 kts | 309° |
| 2026-05-03 21:27 | 26.43802 | -81.00605 | 22049 ft | 365 kts | 309° |
| 2026-05-03 21:27 | 26.45655 | -81.02552 | 22047 ft | 367 kts | 309° |
| 2026-05-03 21:27 | 26.47515 | -81.04509 | 22045 ft | 367 kts | 309° |
| 2026-05-03 21:27 | 26.49371 | -81.06463 | 22055 ft | 367 kts | 309° |
| 2026-05-03 21:28 | 26.51234 | -81.08423 | 22051 ft | 368 kts | 309° |
| 2026-05-03 21:28 | 26.53096 | -81.10384 | 22050 ft | 368 kts | 309° |
| 2026-05-03 21:28 | 26.54958 | -81.12346 | 22048 ft | 368 kts | 309° |
| 2026-05-03 21:28 | 26.56821 | -81.14311 | 22046 ft | 368 kts | 309° |
| 2026-05-03 21:29 | 26.58681 | -81.16274 | 22048 ft | 368 kts | 309° |
| 2026-05-03 21:29 | 26.60540 | -81.18237 | 22055 ft | 368 kts | 309° |
| 2026-05-03 21:29 | 26.62380 | -81.20177 | 22062 ft | 368 kts | 309° |
| 2026-05-03 21:29 | 26.64149 | -81.22222 | 22065 ft | 362 kts | 302° |
| 2026-05-03 21:30 | 26.65726 | -81.24409 | 22067 ft | 362 kts | 301° |
| 2026-05-03 21:30 | 26.67305 | -81.26605 | 22067 ft | 362 kts | 302° |
| 2026-05-03 21:30 | 26.68885 | -81.28802 | 22079 ft | 363 kts | 301° |
| 2026-05-03 21:30 | 26.70471 | -81.31007 | 22079 ft | 364 kts | 302° |
| 2026-05-03 21:31 | 26.72053 | -81.33204 | 22078 ft | 363 kts | 302° |
| 2026-05-03 21:31 | 26.73636 | -81.35397 | 22081 ft | 362 kts | 302° |
| 2026-05-03 21:31 | 26.75219 | -81.37595 | 22080 ft | 362 kts | 302° |
| 2026-05-03 21:31 | 26.76794 | -81.39786 | 22080 ft | 361 kts | 301° |
| 2026-05-03 21:32 | 26.78374 | -81.41988 | 22082 ft | 361 kts | 301° |
| 2026-05-03 21:32 | 26.79945 | -81.44182 | 22080 ft | 362 kts | 301° |
| 2026-05-03 21:32 | 26.81521 | -81.46382 | 22085 ft | 362 kts | 301° |
| 2026-05-03 21:32 | 26.83098 | -81.48581 | 22082 ft | 362 kts | 301° |
| 2026-05-03 21:33 | 26.84673 | -81.50773 | 22090 ft | 362 kts | 302° |
| 2026-05-03 21:33 | 26.86234 | -81.52947 | 22088 ft | 362 kts | 302° |
| 2026-05-03 21:33 | 26.87810 | -81.55143 | 22090 ft | 361 kts | 301° |
| 2026-05-03 21:33 | 26.89386 | -81.57342 | 22090 ft | 361 kts | 301° |
| 2026-05-03 21:34 | 26.90952 | -81.59532 | 22093 ft | 361 kts | 301° |
| 2026-05-03 21:34 | 26.92522 | -81.61732 | 22097 ft | 361 kts | 301° |
| 2026-05-03 21:34 | 26.94067 | -81.63900 | 22106 ft | 361 kts | 301° |
| 2026-05-03 21:34 | 26.95661 | -81.66137 | 22099 ft | 361 kts | 301° |
| 2026-05-03 21:35 | 26.97228 | -81.68334 | 22099 ft | 361 kts | 301° |
| 2026-05-03 21:35 | 26.98798 | -81.70538 | 22073 ft | 362 kts | 301° |
| 2026-05-03 21:35 | 27.00372 | -81.72748 | 22067 ft | 363 kts | 301° |
| 2026-05-03 21:35 | 27.01950 | -81.74965 | 22067 ft | 364 kts | 301° |
| 2026-05-03 21:36 | 27.03532 | -81.77186 | 21831 ft | 362 kts | 301° |
| 2026-05-03 21:36 | 27.05102 | -81.79382 | 20958 ft | 359 kts | 302° |
| 2026-05-03 21:36 | 27.06654 | -81.81551 | 20249 ft | 351 kts | 302° |
| 2026-05-03 21:36 | 27.08176 | -81.83580 | 19843 ft | 345 kts | 308° |
| 2026-05-03 21:37 | 27.10041 | -81.85325 | 19343 ft | 351 kts | 316° |
| 2026-05-03 21:37 | 27.11984 | -81.86960 | 18833 ft | 344 kts | 316° |
| 2026-05-03 21:37 | 27.13886 | -81.88561 | 18388 ft | 340 kts | 316° |
| 2026-05-03 21:37 | 27.15771 | -81.90157 | 17884 ft | 340 kts | 316° |
| 2026-05-03 21:38 | 27.17654 | -81.91757 | 17429 ft | 337 kts | 316° |
| 2026-05-03 21:38 | 27.19521 | -81.93340 | 16983 ft | 336 kts | 316° |
| 2026-05-03 21:38 | 27.21382 | -81.94915 | 16533 ft | 334 kts | 316° |
| 2026-05-03 21:38 | 27.23240 | -81.96484 | 16085 ft | 333 kts | 316° |
| 2026-05-03 21:39 | 27.25083 | -81.98043 | 15641 ft | 332 kts | 317° |
| 2026-05-03 21:39 | 27.26923 | -81.99606 | 15196 ft | 331 kts | 317° |
| 2026-05-03 21:39 | 27.28753 | -82.01163 | 14753 ft | 330 kts | 317° |
| 2026-05-03 21:39 | 27.30580 | -82.02719 | 14315 ft | 328 kts | 317° |
| 2026-05-03 21:40 | 27.32381 | -82.04249 | 13879 ft | 323 kts | 317° |
| 2026-05-03 21:40 | 27.34172 | -82.05771 | 13416 ft | 323 kts | 317° |
| 2026-05-03 21:40 | 27.35963 | -82.07290 | 12987 ft | 321 kts | 317° |
| 2026-05-03 21:40 | 27.37736 | -82.08810 | 12574 ft | 319 kts | 317° |
| 2026-05-03 21:41 | 27.39457 | -82.10365 | 12156 ft | 317 kts | 316° |
| 2026-05-03 21:41 | 27.41131 | -82.11925 | 11753 ft | 306 kts | 315° |
| 2026-05-03 21:41 | 27.42740 | -82.13442 | 11285 ft | 300 kts | 315° |
| 2026-05-03 21:41 | 27.44297 | -82.14924 | 10719 ft | 294 kts | 314° |
| 2026-05-03 21:42 | 27.45794 | -82.16465 | 10123 ft | 290 kts | 312° |
| 2026-05-03 21:42 | 27.47216 | -82.18026 | 9676 ft | 280 kts | 311° |
| 2026-05-03 21:42 | 27.48587 | -82.19563 | 9351 ft | 276 kts | 310° |
| 2026-05-03 21:42 | 27.49940 | -82.21084 | 9060 ft | 273 kts | 311° |
| 2026-05-03 21:43 | 27.50849 | -82.22098 | 8997 ft | 273 kts | 311° |
| 2026-05-03 21:43 | 27.51265 | -82.22562 | 9001 ft | 274 kts | 311° |
| 2026-05-03 21:43 | 27.52552 | -82.23979 | 8936 ft | 270 kts | 311° |
| 2026-05-03 21:44 | 27.53902 | -82.25467 | 8999 ft | 268 kts | 311° |
| 2026-05-03 21:44 | 27.55208 | -82.26897 | 8967 ft | 256 kts | 311° |
| 2026-05-03 21:44 | 27.56465 | -82.28274 | 8646 ft | 250 kts | 311° |
| 2026-05-03 21:44 | 27.57711 | -82.29643 | 8123 ft | 249 kts | 312° |
| 2026-05-03 21:45 | 27.58950 | -82.31005 | 7629 ft | 251 kts | 313° |
| 2026-05-03 21:45 | 27.60217 | -82.32397 | 7153 ft | 257 kts | 313° |
| 2026-05-03 21:45 | 27.61513 | -82.33821 | 6757 ft | 261 kts | 314° |
| 2026-05-03 21:45 | 27.62812 | -82.35248 | 6366 ft | 267 kts | 314° |
| 2026-05-03 21:46 | 27.64144 | -82.36712 | 6084 ft | 266 kts | 314° |
| 2026-05-03 21:46 | 27.65449 | -82.38147 | 5961 ft | 258 kts | 314° |
| 2026-05-03 21:46 | 27.66713 | -82.39536 | 5795 ft | 248 kts | 315° |
| 2026-05-03 21:46 | 27.67915 | -82.40903 | 5328 ft | 244 kts | 309° |
| 2026-05-03 21:47 | 27.68793 | -82.42532 | 4790 ft | 244 kts | 292° |
| 2026-05-03 21:47 | 27.69199 | -82.44413 | 4358 ft | 249 kts | 276° |
| 2026-05-03 21:47 | 27.69249 | -82.46417 | 3667 ft | 265 kts | 271° |
| 2026-05-03 21:47 | 27.69297 | -82.48521 | 3219 ft | 269 kts | 280° |
| 2026-05-03 21:48 | 27.69983 | -82.50445 | 2917 ft | 262 kts | 310° |
| 2026-05-03 21:48 | 27.71355 | -82.51723 | 2977 ft | 260 kts | 331° |
| 2026-05-03 21:48 | 27.72941 | -82.52735 | 2986 ft | 263 kts | 333° |
| 2026-05-03 21:48 | 27.74552 | -82.53714 | 2986 ft | 263 kts | 334° |
| 2026-05-03 21:49 | 27.76178 | -82.54615 | 2982 ft | 254 kts | 345° |
| 2026-05-03 21:49 | 27.77855 | -82.54867 | 2986 ft | 234 kts | 3° |
| 2026-05-03 21:49 | 27.79399 | -82.54813 | 2979 ft | 208 kts | 4° |
| 2026-05-03 21:49 | 27.80784 | -82.54765 | 2925 ft | 194 kts | 4° |
| 2026-05-03 21:50 | 27.82112 | -82.54719 | 2739 ft | 189 kts | 5° |
| 2026-05-03 21:50 | 27.83413 | -82.54674 | 2508 ft | 186 kts | 4° |
| 2026-05-03 21:50 | 27.84711 | -82.54630 | 2306 ft | 186 kts | 3° |
| 2026-05-03 21:50 | 27.85997 | -82.54586 | 2021 ft | 184 kts | 3° |
| 2026-05-03 21:51 | 27.87275 | -82.54543 | 1779 ft | 178 kts | 3° |
| 2026-05-03 21:51 | 27.88440 | -82.54505 | 1569 ft | 156 kts | 5° |
| 2026-05-03 21:51 | 27.89479 | -82.54470 | 1363 ft | 143 kts | 3° |
| 2026-05-03 21:51 | 27.90467 | -82.54436 | 1181 ft | 139 kts | 4° |
| 2026-05-03 21:52 | 27.91434 | -82.54402 | 1017 ft | 139 kts | 5° |
| 2026-05-03 21:52 | 27.92396 | -82.54369 | 838 ft | 138 kts | 5° |
| 2026-05-03 21:52 | 27.93358 | -82.54335 | 653 ft | 140 kts | 4° |
| 2026-05-03 21:52 | 27.94328 | -82.54291 | 478 ft | 139 kts | 7° |
| 2026-05-03 21:53 | 27.95296 | -82.54267 | 284 ft | 138 kts | 5° |
| 2026-05-03 21:53 | 27.96265 | -82.54243 | 90 ft | 139 kts | 4° |
| 2026-05-03 21:53 | 27.97156 | -82.54203 | 27 ft | 110 kts | 1° |
| 2026-05-03 21:53 | 27.97745 | -82.54185 | 20 ft | 59 kts | 1° |
| 2026-05-03 21:54 | 27.97930 | -82.54101 | 24 ft | 18 kts | 55° |
| 2026-05-03 21:54 | 27.97947 | -82.54073 | 23 ft | 0 kts | 55° |
| 2026-05-03 21:55 | 27.97947 | -82.54068 | 24 ft | 1 kts | 84° |
| 2026-05-03 21:55 | 27.97879 | -82.54061 | 22 ft | 20 kts | 191° |
| 2026-05-03 21:55 | 27.97727 | -82.54066 | 20 ft | 23 kts | 179° |
| 2026-05-03 21:55 | 27.97589 | -82.54066 | 21 ft | 20 kts | 179° |
| 2026-05-03 21:56 | 27.97449 | -82.54074 | 23 ft | 20 kts | 183° |
| 2026-05-03 21:56 | 27.97385 | -82.54056 | 24 ft | 7 kts | 123° |
| 2026-05-03 21:56 | 27.97419 | -82.53999 | 22 ft | 16 kts | 11° |
| 2026-05-03 21:56 | 27.97499 | -82.53914 | 23 ft | 19 kts | 103° |
| 2026-05-03 21:57 | 27.97433 | -82.53788 | 27 ft | 18 kts | 123° |
| 2026-05-03 21:57 | 27.97358 | -82.53653 | 24 ft | 22 kts | 116° |
| 2026-05-03 21:57 | 27.97317 | -82.53491 | 27 ft | 21 kts | 98° |
| 2026-05-03 21:57 | 27.97311 | -82.53320 | 27 ft | 22 kts | 91° |
| 2026-05-03 21:58 | 27.97307 | -82.53145 | 28 ft | 20 kts | 91° |
| 2026-05-03 21:58 | 27.97356 | -82.53074 | 29 ft | 11 kts | 0° |
| 2026-05-03 21:58 | 27.97424 | -82.53110 | 31 ft | 11 kts | 324° |
| 2026-05-03 21:58 | 27.97480 | -82.53167 | 33 ft | 7 kts | 317° |
| 2026-05-03 21:59 | 27.97491 | -82.53178 | 33 ft | 1 kts | 318° |
| 2026-05-03 21:59 | 27.97492 | -82.53179 | 34 ft | 0 kts | 318° |